sensor_id;sensor_type;location;lat;lon;timestamp;P1;durP1;ratioP1;P2;durP2;ratioP2
26820;SDS011;37186;51.394;5.454;2023-07-09T00:01:33;34.22;;;33.03;;
26820;SDS011;37186;51.394;5.454;2023-07-09T00:04:34;36.72;;;35.42;;
26820;SDS011;37186;51.394;5.454;2023-07-09T00:07:35;34.35;;;33.15;;
26820;SDS011;37186;51.394;5.454;2023-07-09T00:10:35;35.53;;;34.30;;
26820;SDS011;37186;51.394;5.454;2023-07-09T00:13:36;38.03;;;36.70;;
26820;SDS011;37186;51.394;5.454;2023-07-09T00:16:37;38.47;;;37.10;;
26820;SDS011;37186;51.394;5.454;2023-07-09T00:19:38;36.25;;;34.97;;
26820;SDS011;37186;51.394;5.454;2023-07-09T00:22:40;34.55;;;33.33;;
26820;SDS011;37186;51.394;5.454;2023-07-09T00:25:41;34.78;;;33.58;;
26820;SDS011;37186;51.394;5.454;2023-07-09T00:28:44;36.00;;;34.72;;
26820;SDS011;37186;51.394;5.454;2023-07-09T00:31:44;36.28;;;35.00;;
26820;SDS011;37186;51.394;5.454;2023-07-09T00:34:46;36.53;;;35.22;;
26820;SDS011;37186;51.394;5.454;2023-07-09T00:37:50;34.63;;;33.40;;
26820;SDS011;37186;51.394;5.454;2023-07-09T00:41:01;35.10;;;33.85;;
26820;SDS011;37186;51.394;5.454;2023-07-09T00:44:19;35.33;;;34.08;;
26820;SDS011;37186;51.394;5.454;2023-07-09T00:47:44;34.90;;;33.67;;
26820;SDS011;37186;51.394;5.454;2023-07-09T00:50:50;33.38;;;32.20;;
26820;SDS011;37186;51.394;5.454;2023-07-09T00:53:54;32.35;;;31.23;;
26820;SDS011;37186;51.394;5.454;2023-07-09T00:56:59;31.65;;;30.55;;
26820;SDS011;37186;51.394;5.454;2023-07-09T01:00:07;30.90;;;29.83;;
26820;SDS011;37186;51.394;5.454;2023-07-09T01:03:15;32.83;;;31.70;;
26820;SDS011;37186;51.394;5.454;2023-07-09T01:06:23;31.17;;;30.10;;
26820;SDS011;37186;51.394;5.454;2023-07-09T01:09:30;30.65;;;29.60;;
26820;SDS011;37186;51.394;5.454;2023-07-09T01:12:30;31.50;;;30.40;;
26820;SDS011;37186;51.394;5.454;2023-07-09T01:15:31;28.52;;;27.55;;
26820;SDS011;37186;51.394;5.454;2023-07-09T01:18:34;32.58;;;31.48;;
26820;SDS011;37186;51.394;5.454;2023-07-09T01:21:34;29.50;;;28.50;;
26820;SDS011;37186;51.394;5.454;2023-07-09T01:24:56;30.77;;;29.73;;
26820;SDS011;37186;51.394;5.454;2023-07-09T01:28:00;28.08;;;27.10;;
26820;SDS011;37186;51.394;5.454;2023-07-09T01:31:01;26.33;;;25.42;;
26820;SDS011;37186;51.394;5.454;2023-07-09T01:34:04;26.63;;;25.73;;
26820;SDS011;37186;51.394;5.454;2023-07-09T01:37:05;27.98;;;27.02;;
26820;SDS011;37186;51.394;5.454;2023-07-09T01:40:06;26.98;;;26.08;;
26820;SDS011;37186;51.394;5.454;2023-07-09T01:43:09;25.63;;;24.77;;
26820;SDS011;37186;51.394;5.454;2023-07-09T01:46:10;26.88;;;25.98;;
26820;SDS011;37186;51.394;5.454;2023-07-09T01:49:12;26.40;;;25.52;;
26820;SDS011;37186;51.394;5.454;2023-07-09T01:52:15;22.75;;;22.00;;
26820;SDS011;37186;51.394;5.454;2023-07-09T01:55:19;24.35;;;23.55;;
26820;SDS011;37186;51.394;5.454;2023-07-09T01:58:20;22.38;;;21.65;;
26820;SDS011;37186;51.394;5.454;2023-07-09T02:01:24;21.52;;;20.83;;
26820;SDS011;37186;51.394;5.454;2023-07-09T02:04:25;22.67;;;21.92;;
26820;SDS011;37186;51.394;5.454;2023-07-09T02:07:28;22.67;;;21.95;;
26820;SDS011;37186;51.394;5.454;2023-07-09T02:10:28;23.42;;;22.63;;
26820;SDS011;37186;51.394;5.454;2023-07-09T02:13:29;23.00;;;22.25;;
26820;SDS011;37186;51.394;5.454;2023-07-09T02:16:29;22.52;;;21.80;;
26820;SDS011;37186;51.394;5.454;2023-07-09T02:19:30;22.92;;;22.17;;
26820;SDS011;37186;51.394;5.454;2023-07-09T02:22:31;23.83;;;23.02;;
26820;SDS011;37186;51.394;5.454;2023-07-09T02:25:31;24.25;;;23.45;;
26820;SDS011;37186;51.394;5.454;2023-07-09T02:28:32;22.88;;;22.13;;
26820;SDS011;37186;51.394;5.454;2023-07-09T02:31:33;25.60;;;24.75;;
26820;SDS011;37186;51.394;5.454;2023-07-09T02:34:33;24.95;;;24.15;;
26820;SDS011;37186;51.394;5.454;2023-07-09T02:37:35;26.05;;;25.15;;
26820;SDS011;37186;51.394;5.454;2023-07-09T02:40:35;26.45;;;25.55;;
26820;SDS011;37186;51.394;5.454;2023-07-09T02:43:36;27.05;;;26.15;;
26820;SDS011;37186;51.394;5.454;2023-07-09T02:46:37;28.77;;;27.77;;
26820;SDS011;37186;51.394;5.454;2023-07-09T02:49:37;27.40;;;26.50;;
26820;SDS011;37186;51.394;5.454;2023-07-09T02:52:39;29.40;;;28.40;;
26820;SDS011;37186;51.394;5.454;2023-07-09T02:55:39;29.60;;;28.60;;
26820;SDS011;37186;51.394;5.454;2023-07-09T02:58:40;30.15;;;29.10;;
26820;SDS011;37186;51.394;5.454;2023-07-09T03:01:41;31.35;;;30.25;;
26820;SDS011;37186;51.394;5.454;2023-07-09T03:04:41;30.23;;;29.17;;
26820;SDS011;37186;51.394;5.454;2023-07-09T03:07:42;30.50;;;29.45;;
26820;SDS011;37186;51.394;5.454;2023-07-09T03:10:42;28.30;;;27.35;;
26820;SDS011;37186;51.394;5.454;2023-07-09T03:13:43;28.88;;;27.88;;
26820;SDS011;37186;51.394;5.454;2023-07-09T03:16:44;28.42;;;27.42;;
26820;SDS011;37186;51.394;5.454;2023-07-09T03:19:44;31.27;;;30.17;;
26820;SDS011;37186;51.394;5.454;2023-07-09T03:22:45;30.98;;;29.88;;
26820;SDS011;37186;51.394;5.454;2023-07-09T03:25:45;29.60;;;28.58;;
26820;SDS011;37186;51.394;5.454;2023-07-09T03:28:46;28.77;;;27.77;;
26820;SDS011;37186;51.394;5.454;2023-07-09T03:31:46;28.75;;;27.75;;
26820;SDS011;37186;51.394;5.454;2023-07-09T03:34:49;28.60;;;27.60;;
26820;SDS011;37186;51.394;5.454;2023-07-09T03:37:49;29.00;;;28.00;;
26820;SDS011;37186;51.394;5.454;2023-07-09T03:40:50;31.10;;;30.00;;
26820;SDS011;37186;51.394;5.454;2023-07-09T03:43:52;28.55;;;27.55;;
26820;SDS011;37186;51.394;5.454;2023-07-09T03:46:53;23.95;;;23.15;;
26820;SDS011;37186;51.394;5.454;2023-07-09T03:49:53;15.63;;;15.13;;
26820;SDS011;37186;51.394;5.454;2023-07-09T03:52:54;15.25;;;14.77;;
26820;SDS011;37186;51.394;5.454;2023-07-09T03:55:55;15.60;;;15.10;;
26820;SDS011;37186;51.394;5.454;2023-07-09T03:58:56;14.30;;;13.90;;
26820;SDS011;37186;51.394;5.454;2023-07-09T04:01:57;19.88;;;19.25;;
26820;SDS011;37186;51.394;5.454;2023-07-09T04:04:57;18.25;;;17.65;;
26820;SDS011;37186;51.394;5.454;2023-07-09T04:07:58;18.17;;;17.58;;
26820;SDS011;37186;51.394;5.454;2023-07-09T04:11:00;17.13;;;16.60;;
26820;SDS011;37186;51.394;5.454;2023-07-09T04:14:02;19.05;;;18.45;;
26820;SDS011;37186;51.394;5.454;2023-07-09T04:17:03;18.00;;;17.40;;
26820;SDS011;37186;51.394;5.454;2023-07-09T04:20:04;18.70;;;18.10;;
26820;SDS011;37186;51.394;5.454;2023-07-09T04:23:05;19.15;;;18.55;;
26820;SDS011;37186;51.394;5.454;2023-07-09T04:26:07;16.52;;;16.02;;
26820;SDS011;37186;51.394;5.454;2023-07-09T04:29:12;15.35;;;14.85;;
26820;SDS011;37186;51.394;5.454;2023-07-09T04:32:14;17.90;;;17.30;;
26820;SDS011;37186;51.394;5.454;2023-07-09T04:35:15;17.63;;;17.05;;
26820;SDS011;37186;51.394;5.454;2023-07-09T04:38:16;16.92;;;16.42;;
26820;SDS011;37186;51.394;5.454;2023-07-09T04:41:17;18.25;;;17.65;;
26820;SDS011;37186;51.394;5.454;2023-07-09T04:44:18;18.98;;;18.38;;
26820;SDS011;37186;51.394;5.454;2023-07-09T04:47:18;19.30;;;18.70;;
26820;SDS011;37186;51.394;5.454;2023-07-09T04:50:19;18.98;;;18.38;;
26820;SDS011;37186;51.394;5.454;2023-07-09T04:53:19;19.15;;;18.55;;
26820;SDS011;37186;51.394;5.454;2023-07-09T04:56:20;18.08;;;17.48;;
26820;SDS011;37186;51.394;5.454;2023-07-09T04:59:20;18.00;;;17.40;;
26820;SDS011;37186;51.394;5.454;2023-07-09T05:02:21;17.13;;;16.63;;
26820;SDS011;37186;51.394;5.454;2023-07-09T05:05:23;16.77;;;16.27;;
26820;SDS011;37186;51.394;5.454;2023-07-09T05:08:23;17.52;;;16.98;;
26820;SDS011;37186;51.394;5.454;2023-07-09T05:11:24;16.75;;;16.25;;
26820;SDS011;37186;51.394;5.454;2023-07-09T05:14:26;17.23;;;16.73;;
26820;SDS011;37186;51.394;5.454;2023-07-09T05:17:27;15.05;;;14.57;;
26820;SDS011;37186;51.394;5.454;2023-07-09T05:20:28;15.88;;;15.38;;
26820;SDS011;37186;51.394;5.454;2023-07-09T05:23:28;14.93;;;14.45;;
26820;SDS011;37186;51.394;5.454;2023-07-09T05:26:29;14.75;;;14.27;;
26820;SDS011;37186;51.394;5.454;2023-07-09T05:29:29;13.48;;;13.07;;
26820;SDS011;37186;51.394;5.454;2023-07-09T05:32:30;12.13;;;11.75;;
26820;SDS011;37186;51.394;5.454;2023-07-09T05:35:31;12.25;;;11.85;;
26820;SDS011;37186;51.394;5.454;2023-07-09T05:38:31;10.98;;;10.68;;
26820;SDS011;37186;51.394;5.454;2023-07-09T05:41:32;10.52;;;10.23;;
26820;SDS011;37186;51.394;5.454;2023-07-09T05:44:33;9.23;;;8.93;;
26820;SDS011;37186;51.394;5.454;2023-07-09T05:47:33;8.93;;;8.63;;
26820;SDS011;37186;51.394;5.454;2023-07-09T05:50:34;9.45;;;9.15;;
26820;SDS011;37186;51.394;5.454;2023-07-09T05:53:35;9.30;;;9.00;;
26820;SDS011;37186;51.394;5.454;2023-07-09T05:56:36;9.13;;;8.82;;
26820;SDS011;37186;51.394;5.454;2023-07-09T05:59:37;7.85;;;7.65;;
26820;SDS011;37186;51.394;5.454;2023-07-09T06:02:37;7.97;;;7.78;;
26820;SDS011;37186;51.394;5.454;2023-07-09T06:05:38;8.00;;;7.80;;
26820;SDS011;37186;51.394;5.454;2023-07-09T06:08:38;8.32;;;8.10;;
26820;SDS011;37186;51.394;5.454;2023-07-09T06:11:39;7.85;;;7.65;;
26820;SDS011;37186;51.394;5.454;2023-07-09T06:14:40;7.95;;;7.75;;
26820;SDS011;37186;51.394;5.454;2023-07-09T06:17:41;8.30;;;8.10;;
26820;SDS011;37186;51.394;5.454;2023-07-09T06:20:45;7.75;;;7.55;;
26820;SDS011;37186;51.394;5.454;2023-07-09T06:23:47;8.30;;;8.07;;
26820;SDS011;37186;51.394;5.454;2023-07-09T06:26:48;8.80;;;8.50;;
26820;SDS011;37186;51.394;5.454;2023-07-09T06:29:48;8.68;;;8.43;;
26820;SDS011;37186;51.394;5.454;2023-07-09T06:32:49;9.35;;;9.05;;
26820;SDS011;37186;51.394;5.454;2023-07-09T06:35:50;9.75;;;9.45;;
26820;SDS011;37186;51.394;5.454;2023-07-09T06:38:53;9.27;;;8.98;;
26820;SDS011;37186;51.394;5.454;2023-07-09T06:41:54;10.07;;;9.77;;
26820;SDS011;37186;51.394;5.454;2023-07-09T06:44:54;10.50;;;10.20;;
26820;SDS011;37186;51.394;5.454;2023-07-09T06:47:55;9.90;;;9.60;;
26820;SDS011;37186;51.394;5.454;2023-07-09T06:50:56;8.70;;;8.48;;
26820;SDS011;37186;51.394;5.454;2023-07-09T06:53:57;10.25;;;9.95;;
26820;SDS011;37186;51.394;5.454;2023-07-09T06:56:58;10.13;;;9.82;;
26820;SDS011;37186;51.394;5.454;2023-07-09T06:59:58;9.05;;;8.77;;
26820;SDS011;37186;51.394;5.454;2023-07-09T07:02:59;10.05;;;9.75;;
26820;SDS011;37186;51.394;5.454;2023-07-09T07:05:59;10.88;;;10.57;;
26820;SDS011;37186;51.394;5.454;2023-07-09T07:09:00;11.60;;;11.25;;
26820;SDS011;37186;51.394;5.454;2023-07-09T07:12:01;11.77;;;11.40;;
26820;SDS011;37186;51.394;5.454;2023-07-09T07:15:02;12.50;;;12.10;;
26820;SDS011;37186;51.394;5.454;2023-07-09T07:18:02;12.90;;;12.50;;
26820;SDS011;37186;51.394;5.454;2023-07-09T07:21:04;13.43;;;13.00;;
26820;SDS011;37186;51.394;5.454;2023-07-09T07:24:05;13.43;;;13.00;;
26820;SDS011;37186;51.394;5.454;2023-07-09T07:27:07;13.85;;;13.43;;
26820;SDS011;37186;51.394;5.454;2023-07-09T07:30:08;14.63;;;14.15;;
26820;SDS011;37186;51.394;5.454;2023-07-09T07:33:09;16.60;;;16.05;;
26820;SDS011;37186;51.394;5.454;2023-07-09T07:36:11;17.52;;;16.92;;
26820;SDS011;37186;51.394;5.454;2023-07-09T07:39:12;15.52;;;15.02;;
26820;SDS011;37186;51.394;5.454;2023-07-09T07:42:12;16.30;;;15.77;;
26820;SDS011;37186;51.394;5.454;2023-07-09T07:45:13;18.52;;;17.92;;
26820;SDS011;37186;51.394;5.454;2023-07-09T07:48:14;18.58;;;17.98;;
26820;SDS011;37186;51.394;5.454;2023-07-09T07:51:15;18.05;;;17.45;;
26820;SDS011;37186;51.394;5.454;2023-07-09T07:54:15;19.30;;;18.70;;
26820;SDS011;37186;51.394;5.454;2023-07-09T07:57:18;18.95;;;18.35;;
26820;SDS011;37186;51.394;5.454;2023-07-09T08:00:18;18.67;;;18.08;;
26820;SDS011;37186;51.394;5.454;2023-07-09T08:03:19;19.20;;;18.60;;
26820;SDS011;37186;51.394;5.454;2023-07-09T08:06:20;20.98;;;20.27;;
26820;SDS011;37186;51.394;5.454;2023-07-09T08:09:21;19.13;;;18.52;;
26820;SDS011;37186;51.394;5.454;2023-07-09T08:12:22;19.48;;;18.88;;
26820;SDS011;37186;51.394;5.454;2023-07-09T08:15:23;21.30;;;20.60;;
26820;SDS011;37186;51.394;5.454;2023-07-09T08:18:24;21.23;;;20.52;;
26820;SDS011;37186;51.394;5.454;2023-07-09T08:21:25;19.27;;;18.67;;
26820;SDS011;37186;51.394;5.454;2023-07-09T08:24:25;20.25;;;19.55;;
26820;SDS011;37186;51.394;5.454;2023-07-09T08:27:26;19.20;;;18.60;;
26820;SDS011;37186;51.394;5.454;2023-07-09T08:30:26;20.30;;;19.60;;
26820;SDS011;37186;51.394;5.454;2023-07-09T08:33:27;18.48;;;17.88;;
26820;SDS011;37186;51.394;5.454;2023-07-09T08:36:27;18.75;;;18.15;;
26820;SDS011;37186;51.394;5.454;2023-07-09T08:39:28;18.17;;;17.58;;
26820;SDS011;37186;51.394;5.454;2023-07-09T08:43:02;19.77;;;19.13;;
26820;SDS011;37186;51.394;5.454;2023-07-09T08:49:12;19.67;;;19.02;;
26820;SDS011;37186;51.394;5.454;2023-07-09T08:52:35;16.67;;;16.15;;
26820;SDS011;37186;51.394;5.454;2023-07-09T08:55:38;17.67;;;17.10;;
26820;SDS011;37186;51.394;5.454;2023-07-09T08:58:40;16.95;;;16.40;;
26820;SDS011;37186;51.394;5.454;2023-07-09T09:01:52;19.25;;;18.63;;
26820;SDS011;37186;51.394;5.454;2023-07-09T09:04:57;19.30;;;18.67;;
26820;SDS011;37186;51.394;5.454;2023-07-09T09:07:59;19.08;;;18.48;;
26820;SDS011;37186;51.394;5.454;2023-07-09T09:11:20;20.42;;;19.75;;
26820;SDS011;37186;51.394;5.454;2023-07-09T09:14:35;21.60;;;20.88;;
26820;SDS011;37186;51.394;5.454;2023-07-09T09:17:39;23.95;;;23.13;;
26820;SDS011;37186;51.394;5.454;2023-07-09T09:20:40;25.23;;;24.38;;
26820;SDS011;37186;51.394;5.454;2023-07-09T09:23:52;28.13;;;27.15;;
26820;SDS011;37186;51.394;5.454;2023-07-09T09:26:55;29.48;;;28.42;;
26820;SDS011;37186;51.394;5.454;2023-07-09T09:29:58;32.13;;;31.02;;
26820;SDS011;37186;51.394;5.454;2023-07-09T09:32:59;32.67;;;31.50;;
26820;SDS011;37186;51.394;5.454;2023-07-09T09:36:03;31.98;;;30.83;;
26820;SDS011;37186;51.394;5.454;2023-07-09T09:39:04;36.67;;;35.38;;
26820;SDS011;37186;51.394;5.454;2023-07-09T09:42:10;30.40;;;29.30;;
26820;SDS011;37186;51.394;5.454;2023-07-09T09:45:12;29.77;;;28.73;;
26820;SDS011;37186;51.394;5.454;2023-07-09T09:48:20;30.10;;;29.02;;
26820;SDS011;37186;51.394;5.454;2023-07-09T09:51:33;34.78;;;33.53;;
26820;SDS011;37186;51.394;5.454;2023-07-09T09:54:34;35.55;;;34.22;;
26820;SDS011;37186;51.394;5.454;2023-07-09T09:57:35;31.95;;;30.77;;
26820;SDS011;37186;51.394;5.454;2023-07-09T10:00:35;31.35;;;30.20;;
26820;SDS011;37186;51.394;5.454;2023-07-09T10:03:37;30.00;;;28.92;;
26820;SDS011;37186;51.394;5.454;2023-07-09T10:06:42;34.15;;;32.85;;
26820;SDS011;37186;51.394;5.454;2023-07-09T10:09:52;33.28;;;32.05;;
26820;SDS011;37186;51.394;5.454;2023-07-09T10:16:29;32.80;;;31.60;;
26820;SDS011;37186;51.394;5.454;2023-07-09T10:19:49;32.42;;;31.23;;
26820;SDS011;37186;51.394;5.454;2023-07-09T10:26:26;33.60;;;32.38;;
26820;SDS011;37186;51.394;5.454;2023-07-09T10:39:21;31.33;;;30.17;;
26820;SDS011;37186;51.394;5.454;2023-07-09T10:42:32;30.65;;;29.50;;
26820;SDS011;37186;51.394;5.454;2023-07-09T10:45:39;29.67;;;28.55;;
26820;SDS011;37186;51.394;5.454;2023-07-09T10:48:48;29.98;;;28.85;;
26820;SDS011;37186;51.394;5.454;2023-07-09T10:51:52;33.33;;;32.00;;
26820;SDS011;37186;51.394;5.454;2023-07-09T10:55:17;27.63;;;26.55;;
26820;SDS011;37186;51.394;5.454;2023-07-09T10:58:37;32.25;;;30.95;;
26820;SDS011;37186;51.394;5.454;2023-07-09T11:02:25;32.58;;;31.30;;
26820;SDS011;37186;51.394;5.454;2023-07-09T11:05:27;34.60;;;33.22;;
26820;SDS011;37186;51.394;5.454;2023-07-09T11:08:32;35.70;;;34.25;;
26820;SDS011;37186;51.394;5.454;2023-07-09T11:11:39;35.45;;;33.95;;
26820;SDS011;37186;51.394;5.454;2023-07-09T11:17:52;41.08;;;39.33;;
26820;SDS011;37186;51.394;5.454;2023-07-09T11:24:32;31.40;;;30.10;;
26820;SDS011;37186;51.394;5.454;2023-07-09T11:28:03;31.08;;;29.80;;
26820;SDS011;37186;51.394;5.454;2023-07-09T11:31:15;34.92;;;33.53;;
26820;SDS011;37186;51.394;5.454;2023-07-09T11:34:21;41.70;;;39.92;;
26820;SDS011;37186;51.394;5.454;2023-07-09T11:37:27;40.05;;;38.40;;
26820;SDS011;37186;51.394;5.454;2023-07-09T11:40:28;39.78;;;38.15;;
26820;SDS011;37186;51.394;5.454;2023-07-09T11:43:33;41.42;;;39.72;;
26820;SDS011;37186;51.394;5.454;2023-07-09T11:46:35;39.33;;;37.75;;
26820;SDS011;37186;51.394;5.454;2023-07-09T11:49:55;42.67;;;40.97;;
26820;SDS011;37186;51.394;5.454;2023-07-09T11:53:04;47.95;;;46.03;;
26820;SDS011;37186;51.394;5.454;2023-07-09T11:56:22;44.28;;;42.45;;
26820;SDS011;37186;51.394;5.454;2023-07-09T11:59:25;30.58;;;29.40;;
26820;SDS011;37186;51.394;5.454;2023-07-09T12:02:26;32.72;;;31.45;;
26820;SDS011;37186;51.394;5.454;2023-07-09T12:05:33;29.20;;;28.08;;
26820;SDS011;37186;51.394;5.454;2023-07-09T12:08:37;27.15;;;26.10;;
26820;SDS011;37186;51.394;5.454;2023-07-09T12:11:43;26.70;;;25.65;;
26820;SDS011;37186;51.394;5.454;2023-07-09T12:14:48;25.15;;;24.17;;
26820;SDS011;37186;51.394;5.454;2023-07-09T12:17:53;24.45;;;23.48;;
26820;SDS011;37186;51.394;5.454;2023-07-09T12:20:58;23.15;;;22.27;;
26820;SDS011;37186;51.394;5.454;2023-07-09T12:23:59;25.38;;;24.40;;
26820;SDS011;37186;51.394;5.454;2023-07-09T12:27:02;26.38;;;25.33;;
26820;SDS011;37186;51.394;5.454;2023-07-09T12:30:17;26.58;;;25.60;;
26820;SDS011;37186;51.394;5.454;2023-07-09T12:33:22;25.98;;;25.00;;
26820;SDS011;37186;51.394;5.454;2023-07-09T12:36:25;27.20;;;26.17;;
26820;SDS011;37186;51.394;5.454;2023-07-09T12:39:29;27.60;;;26.55;;
26820;SDS011;37186;51.394;5.454;2023-07-09T12:42:33;28.88;;;27.73;;
26820;SDS011;37186;51.394;5.454;2023-07-09T12:45:36;26.52;;;25.52;;
26820;SDS011;37186;51.394;5.454;2023-07-09T12:48:37;25.48;;;24.50;;
26820;SDS011;37186;51.394;5.454;2023-07-09T12:51:38;27.13;;;26.10;;
26820;SDS011;37186;51.394;5.454;2023-07-09T12:54:39;25.88;;;24.92;;
26820;SDS011;37186;51.394;5.454;2023-07-09T12:57:40;24.75;;;23.83;;
26820;SDS011;37186;51.394;5.454;2023-07-09T13:00:41;23.48;;;22.60;;
26820;SDS011;37186;51.394;5.454;2023-07-09T13:03:54;22.83;;;22.00;;
26820;SDS011;37186;51.394;5.454;2023-07-09T13:06:55;23.88;;;22.95;;
26820;SDS011;37186;51.394;5.454;2023-07-09T13:10:03;23.60;;;22.77;;
26820;SDS011;37186;51.394;5.454;2023-07-09T13:13:10;21.42;;;20.67;;
26820;SDS011;37186;51.394;5.454;2023-07-09T13:16:13;24.30;;;23.42;;
26820;SDS011;37186;51.394;5.454;2023-07-09T13:19:14;23.48;;;22.60;;
26820;SDS011;37186;51.394;5.454;2023-07-09T13:22:15;24.52;;;23.58;;
26820;SDS011;37186;51.394;5.454;2023-07-09T13:25:17;22.38;;;21.55;;
26820;SDS011;37186;51.394;5.454;2023-07-09T13:28:22;23.85;;;22.95;;
26820;SDS011;37186;51.394;5.454;2023-07-09T13:31:27;26.90;;;25.83;;
26820;SDS011;37186;51.394;5.454;2023-07-09T13:34:28;28.08;;;26.95;;
26820;SDS011;37186;51.394;5.454;2023-07-09T13:37:33;26.40;;;25.38;;
26820;SDS011;37186;51.394;5.454;2023-07-09T13:40:33;30.05;;;28.85;;
26820;SDS011;37186;51.394;5.454;2023-07-09T13:43:34;31.25;;;29.95;;
26820;SDS011;37186;51.394;5.454;2023-07-09T13:46:36;29.35;;;28.15;;
26820;SDS011;37186;51.394;5.454;2023-07-09T13:49:36;35.47;;;33.97;;
26820;SDS011;37186;51.394;5.454;2023-07-09T13:52:37;43.20;;;41.25;;
26820;SDS011;37186;51.394;5.454;2023-07-09T13:55:38;31.17;;;30.00;;
26820;SDS011;37186;51.394;5.454;2023-07-09T13:58:38;42.03;;;40.40;;
26820;SDS011;37186;51.394;5.454;2023-07-09T14:01:39;45.38;;;43.55;;
26820;SDS011;37186;51.394;5.454;2023-07-09T14:04:39;32.97;;;31.73;;
26820;SDS011;37186;51.394;5.454;2023-07-09T14:07:41;32.78;;;31.50;;
26820;SDS011;37186;51.394;5.454;2023-07-09T14:10:42;34.05;;;32.80;;
26820;SDS011;37186;51.394;5.454;2023-07-09T14:13:44;36.95;;;35.60;;
26820;SDS011;37186;51.394;5.454;2023-07-09T14:16:46;48.55;;;46.75;;
26820;SDS011;37186;51.394;5.454;2023-07-09T14:19:48;44.05;;;42.45;;
26820;SDS011;37186;51.394;5.454;2023-07-09T14:22:49;41.95;;;40.47;;
26820;SDS011;37186;51.394;5.454;2023-07-09T14:25:50;40.13;;;38.72;;
26820;SDS011;37186;51.394;5.454;2023-07-09T14:28:51;36.20;;;34.92;;
26820;SDS011;37186;51.394;5.454;2023-07-09T14:31:52;35.72;;;34.47;;
26820;SDS011;37186;51.394;5.454;2023-07-09T14:34:52;28.00;;;27.08;;
26820;SDS011;37186;51.394;5.454;2023-07-09T14:37:53;37.22;;;35.90;;
26820;SDS011;37186;51.394;5.454;2023-07-09T14:40:59;28.80;;;27.83;;
26820;SDS011;37186;51.394;5.454;2023-07-09T14:44:05;38.03;;;36.67;;
26820;SDS011;37186;51.394;5.454;2023-07-09T14:47:21;30.75;;;29.70;;
26820;SDS011;37186;51.394;5.454;2023-07-09T14:50:22;28.77;;;27.80;;
26820;SDS011;37186;51.394;5.454;2023-07-09T14:53:26;31.73;;;30.63;;
26820;SDS011;37186;51.394;5.454;2023-07-09T14:56:27;32.63;;;31.48;;
26820;SDS011;37186;51.394;5.454;2023-07-09T14:59:28;31.02;;;29.98;;
26820;SDS011;37186;51.394;5.454;2023-07-09T15:02:33;31.80;;;30.70;;
26820;SDS011;37186;51.394;5.454;2023-07-09T15:05:35;33.03;;;31.92;;
26820;SDS011;37186;51.394;5.454;2023-07-09T15:08:36;32.72;;;31.60;;
26820;SDS011;37186;51.394;5.454;2023-07-09T15:11:37;34.10;;;32.92;;
26820;SDS011;37186;51.394;5.454;2023-07-09T15:14:38;30.17;;;29.15;;
26820;SDS011;37186;51.394;5.454;2023-07-09T15:17:38;30.50;;;29.48;;
26820;SDS011;37186;51.394;5.454;2023-07-09T15:20:39;31.58;;;30.50;;
26820;SDS011;37186;51.394;5.454;2023-07-09T15:23:44;34.00;;;32.83;;
26820;SDS011;37186;51.394;5.454;2023-07-09T15:26:46;30.30;;;29.27;;
26820;SDS011;37186;51.394;5.454;2023-07-09T15:29:52;33.17;;;32.05;;
26820;SDS011;37186;51.394;5.454;2023-07-09T15:32:55;38.65;;;37.30;;
26820;SDS011;37186;51.394;5.454;2023-07-09T15:35:56;48.17;;;46.45;;
26820;SDS011;37186;51.394;5.454;2023-07-09T15:38:57;46.83;;;45.17;;
26820;SDS011;37186;51.394;5.454;2023-07-09T15:41:58;47.53;;;45.83;;
26820;SDS011;37186;51.394;5.454;2023-07-09T15:44:58;48.15;;;46.42;;
26820;SDS011;37186;51.394;5.454;2023-07-09T15:47:59;51.85;;;49.97;;
26820;SDS011;37186;51.394;5.454;2023-07-09T15:51:00;47.05;;;45.40;;
26820;SDS011;37186;51.394;5.454;2023-07-09T15:54:04;42.95;;;41.42;;
26820;SDS011;37186;51.394;5.454;2023-07-09T15:57:14;41.42;;;39.97;;
26820;SDS011;37186;51.394;5.454;2023-07-09T16:03:21;46.17;;;44.53;;
26820;SDS011;37186;51.394;5.454;2023-07-09T16:06:22;50.15;;;48.35;;
26820;SDS011;37186;51.394;5.454;2023-07-09T16:09:23;46.25;;;44.60;;
26820;SDS011;37186;51.394;5.454;2023-07-09T16:12:23;52.13;;;50.25;;
26820;SDS011;37186;51.394;5.454;2023-07-09T16:15:25;53.60;;;51.67;;
26820;SDS011;37186;51.394;5.454;2023-07-09T16:18:26;47.83;;;46.13;;
26820;SDS011;37186;51.394;5.454;2023-07-09T16:21:28;44.10;;;42.53;;
26820;SDS011;37186;51.394;5.454;2023-07-09T16:24:31;39.25;;;37.88;;
26820;SDS011;37186;51.394;5.454;2023-07-09T16:27:32;41.95;;;40.47;;
26820;SDS011;37186;51.394;5.454;2023-07-09T16:30:33;43.78;;;42.20;;
26820;SDS011;37186;51.394;5.454;2023-07-09T16:33:34;42.13;;;40.63;;
26820;SDS011;37186;51.394;5.454;2023-07-09T16:36:34;40.67;;;39.28;;
26820;SDS011;37186;51.394;5.454;2023-07-09T16:39:36;36.13;;;34.88;;
26820;SDS011;37186;51.394;5.454;2023-07-09T16:42:40;42.65;;;41.15;;
26820;SDS011;37186;51.394;5.454;2023-07-09T16:45:41;46.97;;;45.30;;
26820;SDS011;37186;51.394;5.454;2023-07-09T16:48:41;48.33;;;46.63;;
26820;SDS011;37186;51.394;5.454;2023-07-09T16:51:42;56.38;;;54.35;;
26820;SDS011;37186;51.394;5.454;2023-07-09T16:54:43;49.95;;;48.15;;
26820;SDS011;37186;51.394;5.454;2023-07-09T16:57:44;53.85;;;51.90;;
26820;SDS011;37186;51.394;5.454;2023-07-09T17:00:45;77.05;;;74.13;;
26820;SDS011;37186;51.394;5.454;2023-07-09T17:03:46;68.90;;;66.32;;
26820;SDS011;37186;51.394;5.454;2023-07-09T17:06:46;58.88;;;56.67;;
26820;SDS011;37186;51.394;5.454;2023-07-09T17:09:47;49.88;;;48.08;;
26820;SDS011;37186;51.394;5.454;2023-07-09T17:12:51;44.97;;;43.35;;
26820;SDS011;37186;51.394;5.454;2023-07-09T17:15:55;47.17;;;45.42;;
26820;SDS011;37186;51.394;5.454;2023-07-09T17:18:56;51.08;;;49.13;;
26820;SDS011;37186;51.394;5.454;2023-07-09T17:21:56;48.50;;;46.65;;
26820;SDS011;37186;51.394;5.454;2023-07-09T17:24:57;43.28;;;41.65;;
26820;SDS011;37186;51.394;5.454;2023-07-09T17:27:59;43.65;;;42.00;;
26820;SDS011;37186;51.394;5.454;2023-07-09T17:31:02;44.92;;;43.22;;
26820;SDS011;37186;51.394;5.454;2023-07-09T17:34:02;38.08;;;36.67;;
26820;SDS011;37186;51.394;5.454;2023-07-09T17:37:03;42.60;;;40.95;;
26820;SDS011;37186;51.394;5.454;2023-07-09T17:40:13;36.72;;;35.33;;
26820;SDS011;37186;51.394;5.454;2023-07-09T17:43:20;33.53;;;32.33;;
26820;SDS011;37186;51.394;5.454;2023-07-09T17:46:22;34.60;;;33.30;;
26820;SDS011;37186;51.394;5.454;2023-07-09T17:49:24;32.70;;;31.52;;
26820;SDS011;37186;51.394;5.454;2023-07-09T17:52:26;33.13;;;31.95;;
26820;SDS011;37186;51.394;5.454;2023-07-09T17:55:29;31.13;;;30.02;;
26820;SDS011;37186;51.394;5.454;2023-07-09T17:58:36;31.85;;;30.70;;
26820;SDS011;37186;51.394;5.454;2023-07-09T18:01:39;29.52;;;28.50;;
26820;SDS011;37186;51.394;5.454;2023-07-09T18:04:40;33.75;;;32.55;;
26820;SDS011;37186;51.394;5.454;2023-07-09T18:07:40;31.60;;;30.50;;
26820;SDS011;37186;51.394;5.454;2023-07-09T18:10:41;32.28;;;31.13;;
26820;SDS011;37186;51.394;5.454;2023-07-09T18:13:44;35.97;;;34.67;;
26820;SDS011;37186;51.394;5.454;2023-07-09T18:16:44;38.28;;;36.92;;
26820;SDS011;37186;51.394;5.454;2023-07-09T18:19:45;40.00;;;38.58;;
26820;SDS011;37186;51.394;5.454;2023-07-09T18:22:45;37.70;;;36.38;;